Time;durP1;ratioP1;P1;durP2;ratioP2;P2;SDS_P1;SDS_P2;PMS_P1;PMS_P2;Temp;Humidity;BMP_temperature;BMP_pressure;BME280_temperature;BME280_humidity;BME280_pressure;Samples;Min_cycle;Max_cycle;Signal;HPM_P1;HPM_P2
2022/03/10 00:00:56;;;;;;;28.42;15.30;;;;;;;0.05;100.00;97785.19;5027410;28;20080;-81
2022/03/10 00:03:22;;;;;;;33.58;15.27;;;;;;;0.08;100.00;97776.38;5022260;28;20067;-82
2022/03/10 00:05:48;;;;;;;26.60;14.52;;;;;;;0.09;100.00;97788.66;5024655;28;20036;-82
2022/03/10 00:08:13;;;;;;;39.20;17.02;;;;;;;0.08;100.00;97779.88;5025627;28;20499;-83
2022/03/10 00:10:39;;;;;;;36.75;17.15;;;;;;;0.06;100.00;97784.31;5020620;28;20021;-81
2022/03/10 00:13:05;;;;;;;37.90;18.60;;;;;;;-0.09;100.00;97787.16;5029210;28;20083;-83
2022/03/10 00:15:31;;;;;;;41.20;18.35;;;;;;;-0.02;100.00;97778.28;5023114;28;20025;-81
2022/03/10 00:17:56;;;;;;;44.95;18.30;;;;;;;-0.06;100.00;97766.97;5026895;28;20455;-82
2022/03/10 00:20:22;;;;;;;36.65;18.17;;;;;;;0.05;100.00;97777.31;5027796;28;20413;-81
2022/03/10 00:22:51;;;;;;;34.60;16.50;;;;;;;-0.05;100.00;97765.19;5025006;28;20039;-81
2022/03/10 00:25:17;;;;;;;35.55;15.65;;;;;;;-0.03;100.00;97768.66;5022730;28;20029;-82
2022/03/10 00:27:43;;;;;;;34.63;15.60;;;;;;;0.03;100.00;97765.09;5025464;28;20078;-82
2022/03/10 00:30:09;;;;;;;34.78;16.27;;;;;;;0.12;100.00;97773.69;5036949;28;20029;-81
2022/03/10 00:32:46;;;;;;;30.75;15.57;;;;;;;0.13;100.00;97772.78;5028633;28;20067;-82
2022/03/10 00:35:15;;;;;;;30.95;15.30;;;;;;;0.00;100.00;97766.03;5025956;28;20052;-82
2022/03/10 00:37:41;;;;;;;37.55;16.83;;;;;;;-0.08;100.00;97781.03;5027040;28;20493;-82
2022/03/10 00:40:09;;;;;;;36.72;17.60;;;;;;;-0.10;100.00;97774.94;5021389;28;20025;-81
2022/03/10 00:42:39;;;;;;;39.88;17.65;;;;;;;-0.27;100.00;97771.69;5031381;28;20385;-81
2022/03/10 00:45:05;;;;;;;34.63;16.83;;;;;;;-0.44;100.00;97753.59;5029304;28;20111;-82
2022/03/10 00:47:31;;;;;;;38.35;17.05;;;;;;;-0.47;100.00;97758.00;5025822;28;20028;-83
2022/03/10 00:49:57;;;;;;;37.50;17.23;;;;;;;-0.40;100.00;97762.28;5028534;28;20504;-81
2022/03/10 00:52:22;;;;;;;35.28;17.13;;;;;;;-0.50;100.00;97772.06;5027875;28;20040;-82
2022/03/10 00:54:48;;;;;;;42.83;18.58;;;;;;;-0.66;100.00;97763.53;5021151;28;20497;-81
2022/03/10 00:57:13;;;;;;;35.97;16.42;;;;;;;-0.74;100.00;97747.00;5028666;28;20033;-83
2022/03/10 00:59:39;;;;;;;38.63;17.52;;;;;;;-0.77;100.00;97760.19;5028732;28;20082;-81
2022/03/10 01:02:05;;;;;;;28.67;13.88;;;;;;;-0.87;100.00;97752.47;5027904;28;20033;-81
2022/03/10 01:04:30;;;;;;;31.40;14.98;;;;;;;-0.88;100.00;97766.47;5026750;28;20037;-81
2022/03/10 01:06:56;;;;;;;31.25;14.77;;;;;;;-0.89;100.00;97770.00;5031959;28;20044;-83
2022/03/10 01:09:21;;;;;;;29.35;14.80;;;;;;;-0.92;100.00;97772.69;5028837;28;20029;-82
2022/03/10 01:11:47;;;;;;;34.38;14.50;;;;;;;-0.89;100.00;97765.59;5031921;28;20032;-81
2022/03/10 01:14:12;;;;;;;31.73;13.80;;;;;;;-0.99;100.00;97758.75;5030743;28;20033;-81
2022/03/10 01:16:38;;;;;;;27.48;13.25;;;;;;;-0.96;100.00;97758.72;5030088;28;20496;-81
2022/03/10 01:19:04;;;;;;;29.48;13.82;;;;;;;-0.97;100.00;97769.22;5050671;28;20034;-80
2022/03/10 01:21:30;;;;;;;28.75;14.23;;;;;;;-1.07;100.00;97760.59;5026170;28;20394;-82
2022/03/10 01:23:55;;;;;;;32.22;14.93;;;;;;;-1.12;100.00;97759.81;5028765;28;20036;-81
2022/03/10 01:26:21;;;;;;;30.45;14.52;;;;;;;-1.09;100.00;97759.75;5025727;28;20033;-83
2022/03/10 01:28:47;;;;;;;32.67;15.23;;;;;;;-1.20;100.00;97743.31;5028460;28;20465;-81
2022/03/10 01:31:12;;;;;;;27.38;13.15;;;;;;;-0.99;100.00;97761.38;5043400;28;20016;-82
2022/03/10 01:33:38;;;;;;;30.35;14.32;;;;;;;-1.02;100.00;97768.44;5028991;28;20052;-81
2022/03/10 01:36:04;;;;;;;27.48;13.45;;;;;;;-1.00;100.00;97762.28;5028777;28;20033;-82
2022/03/10 01:38:29;;;;;;;28.42;13.80;;;;;;;-0.96;100.00;97771.84;5029299;28;20090;-82
2022/03/10 01:40:55;;;;;;;29.75;13.88;;;;;;;-0.97;100.00;97767.47;5026962;28;20086;-82
2022/03/10 01:43:21;;;;;;;28.60;14.10;;;;;;;-0.89;100.00;97772.63;5028395;28;20053;-82
2022/03/10 01:45:46;;;;;;;31.10;13.65;;;;;;;-0.95;100.00;97763.06;5031178;28;20032;-82
2022/03/10 01:48:12;;;;;;;30.13;13.82;;;;;;;-0.89;100.00;97776.09;5027088;28;20032;-82
2022/03/10 01:50:38;;;;;;;28.17;13.98;;;;;;;-0.88;100.00;97776.97;5028680;28;20458;-84
2022/03/10 01:53:03;;;;;;;31.58;14.30;;;;;;;-0.78;100.00;97776.84;5032818;28;20025;-83
2022/03/10 01:55:29;;;;;;;38.97;15.80;;;;;;;-0.74;100.00;97770.63;5031268;28;20444;-82
2022/03/10 01:57:55;;;;;;;40.75;16.48;;;;;;;-0.72;100.00;97768.88;5027407;28;20121;-81
2022/03/10 02:00:21;;;;;;;33.40;14.13;;;;;;;-0.77;100.00;97760.19;5027432;28;20550;-81
2022/03/10 02:02:46;;;;;;;32.95;14.88;;;;;;;-0.77;100.00;97765.44;5027755;28;20064;-81
2022/03/10 02:05:12;;;;;;;33.50;15.30;;;;;;;-0.82;100.00;97767.28;5025132;28;20085;-81
2022/03/10 02:10:23;;;;;;;43.85;16.00;;;;;;;-0.75;100.00;97774.19;5037721;28;21124;-81
2022/03/10 02:12:56;;;;;;;39.67;15.77;;;;;;;-0.73;100.00;97774.13;5027875;28;20034;-81
2022/03/10 02:18:14;;;;;;;28.40;13.27;;;;;;;-0.67;100.00;97776.69;5045673;28;20047;-80
2022/03/10 02:20:40;;;;;;;27.67;13.70;;;;;;;-0.76;100.00;97782.94;5022109;28;20021;-82
2022/03/10 02:23:07;;;;;;;32.03;14.23;;;;;;;-0.77;100.00;97786.44;5023604;28;20131;-82
2022/03/10 02:25:35;;;;;;;31.27;14.65;;;;;;;-0.77;100.00;97786.44;5025025;28;20508;-81
2022/03/10 02:28:01;;;;;;;26.45;11.77;;;;;;;-0.75;100.00;97784.69;5042323;28;20082;-82
2022/03/10 02:30:30;;;;;;;24.17;12.10;;;;;;;-0.81;100.00;97790.03;5024608;28;20108;-82
2022/03/10 02:32:59;;;;;;;23.10;11.48;;;;;;;-0.85;100.00;97792.69;5031287;28;20028;-81
2022/03/10 02:35:25;;;;;;;22.08;10.90;;;;;;;-0.83;100.00;97797.03;5028267;28;20036;-83
2022/03/10 02:37:51;;;;;;;19.90;9.65;;;;;;;-0.92;100.00;97791.06;5045780;28;20048;-81
2022/03/10 02:40:17;;;;;;;18.48;9.32;;;;;;;-0.95;100.00;97804.22;5025790;28;20129;-82
2022/03/10 02:42:42;;;;;;;20.98;10.43;;;;;;;-0.92;100.00;97799.78;5024344;28;20033;-82
2022/03/10 02:45:09;;;;;;;28.50;10.20;;;;;;;-0.82;100.00;97811.91;5025149;28;20163;-82
2022/03/10 02:47:35;;;;;;;21.58;9.98;;;;;;;-1.13;100.00;97792.16;5027177;28;20032;-82
2022/03/10 02:50:03;;;;;;;22.45;10.20;;;;;;;-1.17;100.00;97790.50;5040983;28;20448;-81
2022/03/10 02:52:29;;;;;;;21.30;10.02;;;;;;;-1.22;100.00;97802.78;5030531;28;20456;-82
2022/03/10 02:54:54;;;;;;;21.95;10.45;;;;;;;-1.08;100.00;97821.88;5041035;28;20025;-81
2022/03/10 02:57:20;;;;;;;23.60;10.75;;;;;;;-1.09;100.00;97825.38;5049160;28;20032;-81
2022/03/10 02:59:46;;;;;;;24.58;11.50;;;;;;;-1.21;100.00;97815.91;5034865;28;20108;-81
2022/03/10 03:02:12;;;;;;;21.38;10.65;;;;;;;-1.27;100.00;97826.47;5032702;28;20103;-81
2022/03/10 03:04:38;;;;;;;21.35;10.88;;;;;;;-1.35;100.00;97816.91;5026497;28;20112;-81
2022/03/10 03:07:03;;;;;;;23.80;11.50;;;;;;;-1.44;100.00;97814.38;5026272;28;20496;-82
2022/03/10 03:09:29;;;;;;;23.25;10.80;;;;;;;-1.36;100.00;97829.19;5029378;28;20049;-81
2022/03/10 03:11:55;;;;;;;25.85;11.15;;;;;;;-1.41;100.00;97807.34;5028678;28;20024;-81
2022/03/10 03:14:23;;;;;;;23.00;11.82;;;;;;;-1.34;100.00;97816.91;5025067;28;20025;-82
2022/03/10 03:16:50;;;;;;;23.33;11.20;;;;;;;-1.36;100.00;97815.19;5024836;28;20025;-82
2022/03/10 03:19:16;;;;;;;28.48;13.80;;;;;;;-1.38;100.00;97811.69;5026106;28;20021;-81
2022/03/10 03:21:42;;;;;;;29.73;13.38;;;;;;;-1.44;100.00;97817.00;5023969;28;20507;-81
2022/03/10 03:24:07;;;;;;;37.75;15.07;;;;;;;-1.56;100.00;97819.75;5051615;28;20033;-81
2022/03/10 03:26:33;;;;;;;26.52;13.15;;;;;;;-1.59;100.00;97819.78;5023316;28;20546;-82
2022/03/10 03:28:59;;;;;;;30.75;12.40;;;;;;;-1.60;100.00;97815.44;5024102;28;20044;-82
2022/03/10 03:31:24;;;;;;;26.08;13.43;;;;;;;-1.69;100.00;97829.50;5030432;28;20036;-82
2022/03/10 03:33:50;;;;;;;32.78;15.02;;;;;;;-1.76;100.00;97819.97;5026132;28;20484;-82
2022/03/10 03:36:16;;;;;;;27.90;13.15;;;;;;;-1.82;100.00;97831.38;5029067;28;20021;-82
2022/03/10 03:38:41;;;;;;;25.05;11.60;;;;;;;-1.97;100.00;97826.25;5028738;28;20029;-81
2022/03/10 03:41:07;;;;;;;25.30;10.70;;;;;;;-2.08;100.00;97817.63;5031028;28;20463;-81
2022/03/10 03:43:32;;;;;;;19.80;9.75;;;;;;;-2.17;100.00;97820.31;5023612;28;20029;-81
2022/03/10 03:45:58;;;;;;;26.50;12.55;;;;;;;-2.20;100.00;97822.97;5045574;28;20416;-81
2022/03/10 03:48:24;;;;;;;24.15;12.10;;;;;;;-2.25;100.00;97822.13;5025768;28;20016;-81
2022/03/10 03:50:50;;;;;;;21.83;11.20;;;;;;;-2.27;100.00;97831.72;5028774;28;20068;-81
2022/03/10 03:53:16;;;;;;;26.90;12.73;;;;;;;-2.36;100.00;97845.75;5022449;28;20049;-81
2022/03/10 03:55:41;;;;;;;28.40;12.88;;;;;;;-2.34;100.00;97837.91;5028333;28;20416;-82
2022/03/10 03:58:07;;;;;;;33.88;15.18;;;;;;;-2.41;100.00;97829.22;5026145;28;20032;-82
2022/03/10 04:00:34;;;;;;;28.83;12.35;;;;;;;-2.35;100.00;97838.78;5020795;28;20029;-82
2022/03/10 04:03:09;;;;;;;30.08;14.23;;;;;;;-2.28;100.00;97850.97;5039469;28;20029;-81
2022/03/10 04:05:35;;;;;;;28.08;12.75;;;;;;;-2.31;100.00;97845.75;5039369;28;20532;-81
2022/03/10 04:08:01;;;;;;;26.25;11.93;;;;;;;-2.25;100.00;97850.94;5029130;28;20489;-81
2022/03/10 04:10:26;;;;;;;29.65;14.43;;;;;;;-2.16;100.00;97857.88;5020048;28;20028;-82
2022/03/10 04:12:52;;;;;;;27.88;13.85;;;;;;;-2.18;100.00;97860.47;5022891;28;20029;-82
2022/03/10 04:15:18;;;;;;;33.10;14.80;;;;;;;-2.16;100.00;97861.34;5022710;28;20024;-82
2022/03/10 04:17:45;;;;;;;37.78;16.05;;;;;;;-2.15;100.00;97868.31;5044757;28;20409;-82
2022/03/10 04:20:13;;;;;;;36.20;14.80;;;;;;;-2.32;100.00;97854.47;5031293;28;20527;-82
2022/03/10 04:22:42;;;;;;;30.00;14.30;;;;;;;-2.25;100.00;97862.31;5019101;28;20029;-82
2022/03/10 04:25:11;;;;;;;27.50;12.95;;;;;;;-2.30;100.00;97873.66;5025577;28;20025;-82
2022/03/10 04:27:37;;;;;;;27.80;13.85;;;;;;;-2.37;100.00;97861.50;5034557;28;20040;-82
2022/03/10 04:30:05;;;;;;;28.23;13.70;;;;;;;-2.31;100.00;97870.16;5025675;28;20030;-81
2022/03/10 04:32:42;;;;;;;37.53;16.50;;;;;;;-2.30;100.00;97871.91;5027723;28;20037;-82
2022/03/10 04:35:13;;;;;;;33.75;15.63;;;;;;;-2.36;100.00;97860.59;5028805;28;20040;-83
2022/03/10 04:37:39;;;;;;;34.22;16.35;;;;;;;-2.41;100.00;97860.66;5042027;28;20551;-81
2022/03/10 04:40:06;;;;;;;42.45;19.27;;;;;;;-2.36;100.00;97874.56;5030076;28;20072;-82
2022/03/10 04:42:33;;;;;;;33.75;16.33;;;;;;;-2.37;100.00;97866.75;5026138;28;20127;-85
2022/03/10 04:44:59;;;;;;;33.05;16.10;;;;;;;-2.58;100.00;97841.53;5023400;28;20033;-86
2022/03/10 04:47:24;;;;;;;28.17;13.57;;;;;;;-2.41;100.00;97880.72;5030777;28;20389;-85
2022/03/10 04:49:51;;;;;;;29.23;15.73;;;;;;;-2.42;100.00;97881.59;5026596;28;20035;-85
2022/03/10 04:52:16;;;;;;;29.42;15.27;;;;;;;-2.45;100.00;97879.88;5035722;28;20021;-84
2022/03/10 04:54:42;;;;;;;36.63;17.02;;;;;;;-2.44;100.00;97884.25;5030270;28;20033;-83
2022/03/10 04:57:08;;;;;;;35.47;17.17;;;;;;;-2.50;100.00;97883.41;4981505;28;20571;-83
2022/03/10 04:59:34;;;;;;;32.05;16.05;;;;;;;-2.61;100.00;97865.13;5014828;28;20485;-83
2022/03/10 05:02:01;;;;;;;31.20;15.65;;;;;;;-2.56;100.00;97881.69;5031763;28;20061;-83
2022/03/10 05:04:26;;;;;;;24.35;12.23;;;;;;;-2.80;100.00;97840.78;5023668;28;20030;-83
2022/03/10 05:06:55;;;;;;;27.20;13.05;;;;;;;-2.43;100.00;97896.44;4997301;28;20104;-84
2022/03/10 05:09:21;;;;;;;27.38;12.80;;;;;;;-2.42;100.00;97881.59;5012071;28;20387;-83
2022/03/10 05:11:46;;;;;;;25.35;11.98;;;;;;;-2.22;100.00;97892.84;5012545;28;20037;-84
2022/03/10 05:14:12;;;;;;;44.45;23.15;;;;;;;-2.25;100.00;97892.84;4995306;28;20025;-84
2022/03/10 05:16:38;;;;;;;32.75;15.38;;;;;;;-2.16;100.00;97900.66;5011978;28;20033;-83
2022/03/10 05:19:03;;;;;;;27.98;12.35;;;;;;;-2.43;100.00;97885.13;4995016;28;20351;-84
2022/03/10 05:21:29;;;;;;;27.70;12.95;;;;;;;-2.27;100.00;97899.84;5011342;28;20026;-83
2022/03/10 05:23:54;;;;;;;23.80;11.32;;;;;;;-1.34;100.00;97928.84;4994757;28;20030;-83
2022/03/10 05:26:20;;;;;;;26.90;12.68;;;;;;;-0.40;97.73;97933.91;5011307;28;20473;-84
2022/03/10 05:28:46;;;;;;;25.65;11.15;;;;;;;0.05;91.50;97942.06;5014297;28;20042;-84
2022/03/10 05:31:11;;;;;;;26.85;13.43;;;;;;;0.71;85.62;97948.91;4998262;28;20402;-84
2022/03/10 05:33:37;;;;;;;35.13;16.02;;;;;;;0.83;82.30;97942.59;5013848;28;20033;-84
2022/03/10 05:36:03;;;;;;;33.53;15.60;;;;;;;1.20;81.27;97948.91;4998654;28;20084;-82
2022/03/10 05:38:29;;;;;;;38.22;19.20;;;;;;;1.83;76.62;97945.91;4998272;28;20056;-84
2022/03/10 05:40:54;;;;;;;31.95;17.30;;;;;;;1.99;74.14;97940.28;4997717;28;20391;-84
2022/03/10 05:43:20;;;;;;;37.17;17.90;;;;;;;2.47;72.54;97955.88;4998497;28;20116;-83
2022/03/10 05:45:45;;;;;;;37.72;20.40;;;;;;;3.22;69.46;97922.28;5029223;28;20080;-83
2022/03/10 05:48:11;;;;;;;41.80;22.13;;;;;;;4.44;64.41;97942.50;5015733;28;20116;-85
2022/03/10 05:50:37;;;;;;;69.63;36.90;;;;;;;4.85;61.51;97913.78;4997933;28;20018;-85
2022/03/10 05:53:03;;;;;;;46.03;25.40;;;;;;;5.42;58.52;97934.75;4988398;28;20105;-84
2022/03/10 05:55:29;;;;;;;33.10;17.13;;;;;;;5.62;57.71;97939.38;4993262;28;20088;-73
2022/03/10 05:57:56;;;;;;;57.47;27.80;;;;;;;5.56;56.53;97930.75;5009367;28;20034;-85
2022/03/10 06:00:22;;;;;;;36.00;18.63;;;;;;;6.50;54.68;97938.69;4996588;28;20021;-82
2022/03/10 06:02:48;;;;;;;28.63;15.65;;;;;;;6.53;53.19;97930.59;4996621;28;20053;-81
2022/03/10 06:05:13;;;;;;;70.35;31.38;;;;;;;6.99;52.18;97941.09;5013014;28;20422;-80
2022/03/10 06:07:39;;;;;;;56.33;26.25;;;;;;;7.00;51.48;97937.50;5024043;28;20042;-82
2022/03/10 06:10:05;;;;;;;43.83;22.25;;;;;;;7.42;50.30;97945.47;5018732;28;20026;-81
2022/03/10 06:12:31;;;;;;;34.13;17.05;;;;;;;7.60;49.92;97933.16;5009709;28;20409;-82
2022/03/10 06:14:58;;;;;;;32.65;18.85;;;;;;;8.75;47.46;97933.13;5009571;28;20032;-81
2022/03/10 06:17:24;;;;;;;33.65;17.90;;;;;;;8.17;47.15;97945.66;5026417;28;20454;-82
2022/03/10 06:19:50;;;;;;;93.80;49.58;;;;;;;8.02;48.40;97936.56;5007084;28;20087;-81
2022/03/10 06:22:20;;;;;;;24.08;13.13;;;;;;;8.40;46.60;97941.97;5014641;28;20036;-82
2022/03/10 06:24:46;;;;;;;25.35;14.90;;;;;;;9.12;46.03;97918.84;5005008;28;20335;-81
2022/03/10 06:27:13;;;;;;;40.55;23.10;;;;;;;10.79;43.59;97935.69;5024767;28;20121;-83
2022/03/10 06:29:39;;;;;;;31.55;19.15;;;;;;;11.05;41.22;97925.25;5049664;28;20033;-83
2022/03/10 06:32:05;;;;;;;51.95;26.02;;;;;;;11.78;39.94;97927.19;5021615;28;20091;-82
2022/03/10 06:34:31;;;;;;;96.38;49.45;;;;;;;12.29;38.71;97913.22;5004783;28;20033;-83
2022/03/10 06:36:57;;;;;;;63.67;35.95;;;;;;;11.48;40.06;97923.59;5022575;28;20022;-83
2022/03/10 06:39:26;;;;;;;85.80;47.05;;;;;;;11.20;40.24;97935.94;5023626;28;20122;-81
2022/03/10 06:41:51;;;;;;;62.95;36.05;;;;;;;11.93;39.20;97936.97;5018265;28;20061;-81
2022/03/10 06:44:17;;;;;;;56.45;32.35;;;;;;;11.79;39.28;97943.16;5010431;28;20132;-82
2022/03/10 06:46:42;;;;;;;53.50;29.73;;;;;;;12.05;38.36;97930.84;5000143;28;20518;-82
2022/03/10 06:49:08;;;;;;;67.18;38.72;;;;;;;12.18;38.35;97947.88;5004384;28;20040;-83
2022/03/10 06:51:33;;;;;;;53.97;30.67;;;;;;;12.41;37.80;97950.00;5012556;28;20060;-83
2022/03/10 06:53:59;;;;;;;62.28;35.55;;;;;;;13.65;35.95;97938.28;5000796;28;20085;-82
2022/03/10 06:56:25;;;;;;;78.30;45.22;;;;;;;13.25;36.08;97948.16;5000365;28;20026;-81
2022/03/10 06:58:51;;;;;;;79.03;43.75;;;;;;;12.68;37.20;97954.59;4995416;28;20482;-82
2022/03/10 07:01:17;;;;;;;41.60;21.60;;;;;;;12.83;37.77;97962.53;5006202;28;20032;-83
2022/03/10 07:03:42;;;;;;;55.88;27.88;;;;;;;12.14;38.22;97959.78;4995562;28;20027;-82
2022/03/10 07:06:08;;;;;;;41.83;21.02;;;;;;;9.88;40.72;97982.53;5006302;28;20037;-82
2022/03/10 07:08:34;;;;;;;25.67;15.13;;;;;;;8.34;44.93;98000.88;5021264;28;20025;-82
2022/03/10 07:11:00;;;;;;;26.75;14.95;;;;;;;6.82;47.99;98033.97;5001843;28;20025;-82
2022/03/10 07:13:26;;;;;;;29.10;14.65;;;;;;;5.87;50.70;98035.81;5003991;28;20544;-82
2022/03/10 07:15:55;;;;;;;22.50;11.70;;;;;;;3.89;54.89;98041.22;5020136;28;20120;-83
2022/03/10 07:18:21;;;;;;;19.70;11.18;;;;;;;3.28;59.45;98061.34;5013217;28;20044;-82
2022/03/10 07:20:47;;;;;;;19.30;11.18;;;;;;;3.51;59.96;98084.53;5020689;28;20171;-82
2022/03/10 07:23:13;;;;;;;19.98;11.00;;;;;;;3.35;61.82;98081.44;5017305;28;20088;-81
2022/03/10 07:25:41;;;;;;;24.40;12.10;;;;;;;3.41;62.03;98072.47;5010686;28;20557;-82
2022/03/10 07:28:07;;;;;;;16.63;9.88;;;;;;;2.88;62.20;98087.84;5031391;28;20025;-81
2022/03/10 07:30:33;;;;;;;15.23;8.95;;;;;;;2.80;63.64;98092.41;5019313;28;20088;-83
2022/03/10 07:33:01;;;;;;;14.57;8.82;;;;;;;2.84;63.45;98035.97;5012506;28;20029;-82
2022/03/10 07:35:27;;;;;;;17.02;9.25;;;;;;;3.39;62.05;98076.91;5027003;28;20033;-81
2022/03/10 07:37:56;;;;;;;15.60;9.65;;;;;;;4.24;62.00;98083.47;5007724;28;20029;-82
2022/03/10 07:40:22;;;;;;;21.55;10.20;;;;;;;4.48;59.79;98063.34;5003539;28;20394;-83
2022/03/10 07:42:48;;;;;;;19.60;11.07;;;;;;;5.64;56.09;98058.69;5002638;28;20033;-83
2022/03/10 07:45:13;;;;;;;17.13;9.80;;;;;;;5.98;54.99;98057.53;4998181;28;20037;-81
2022/03/10 07:47:42;;;;;;;16.50;10.00;;;;;;;6.00;55.07;98037.06;5011047;28;20036;-84
2022/03/10 07:50:08;;;;;;;20.95;11.77;;;;;;;5.75;53.49;98038.81;4995983;28;20126;-83
2022/03/10 07:52:34;;;;;;;17.35;9.57;;;;;;;6.87;50.22;98010.72;5010916;28;20117;-76
2022/03/10 07:54:59;;;;;;;23.38;9.00;;;;;;;6.39;51.67;98034.78;5000396;28;20481;-84
2022/03/10 07:57:25;;;;;;;13.57;7.47;;;;;;;7.21;49.64;98035.97;5025226;28;20497;-75
2022/03/10 07:59:52;;;;;;;17.77;9.20;;;;;;;8.26;48.36;98024.31;5031362;28;20025;-76
2022/03/10 08:02:18;;;;;;;11.52;6.88;;;;;;;9.42;43.83;97993.84;5023477;28;20068;-78
2022/03/10 08:04:44;;;;;;;16.50;7.72;;;;;;;10.56;42.57;98002.94;5002403;28;20026;-77
2022/03/10 08:07:09;;;;;;;25.15;12.45;;;;;;;10.27;42.59;98004.50;5001668;28;20509;-75
2022/03/10 08:09:35;;;;;;;22.42;12.38;;;;;;;11.30;40.11;97990.72;5013783;28;20124;-78
2022/03/10 08:12:01;;;;;;;26.08;15.20;;;;;;;12.16;38.88;97992.72;5028264;28;20555;-81
2022/03/10 08:14:27;;;;;;;19.77;11.45;;;;;;;13.34;38.71;97990.53;5018722;28;20052;-79
2022/03/10 08:16:52;;;;;;;16.13;8.63;;;;;;;14.18;36.93;97974.91;5029208;28;20033;-74
2022/03/10 08:19:19;;;;;;;13.38;8.20;;;;;;;12.26;39.71;97988.53;5034658;28;20152;-73
2022/03/10 08:21:44;;;;;;;13.30;8.07;;;;;;;12.55;38.13;97985.88;4998922;28;20029;-72
2022/03/10 08:24:10;;;;;;;9.50;6.75;;;;;;;9.58;39.21;97968.97;5014339;28;20051;-76
2022/03/10 08:26:36;;;;;;;12.02;8.48;;;;;;;9.68;42.10;98004.09;5005563;28;20164;-79
2022/03/10 08:29:02;;;;;;;17.33;9.18;;;;;;;10.93;41.61;98004.47;5003401;28;20045;-84
2022/03/10 08:31:28;;;;;;;11.40;7.05;;;;;;;11.10;38.81;97985.66;5017154;28;20021;-84
2022/03/10 08:33:53;;;;;;;14.35;8.23;;;;;;;9.46;41.91;97988.28;5019384;28;20480;-83
2022/03/10 08:36:19;;;;;;;13.82;8.18;;;;;;;8.93;42.12;97990.94;5002701;28;20501;-84
2022/03/10 08:38:44;;;;;;;14.00;8.40;;;;;;;9.71;41.59;97995.91;5014547;28;20405;-84
2022/03/10 08:41:10;;;;;;;13.75;9.00;;;;;;;8.75;43.17;98002.47;5021106;28;20056;-84
2022/03/10 08:43:37;;;;;;;14.40;8.82;;;;;;;7.96;43.95;97991.91;5020402;28;20125;-84
2022/03/10 08:46:21;;;;;;;13.18;8.27;;;;;;;9.55;40.06;98005.66;5020355;28;20034;-84
2022/03/10 08:48:47;;;;;;;17.25;10.07;;;;;;;9.14;40.56;97983.66;5018623;28;20117;-83
2022/03/10 08:51:13;;;;;;;11.68;7.53;;;;;;;8.10;42.50;97987.69;5020816;28;20048;-83
2022/03/10 08:53:38;;;;;;;20.65;11.65;;;;;;;7.14;45.34;98023.88;5019667;28;20040;-84
2022/03/10 08:56:09;;;;;;;14.30;8.15;;;;;;;6.00;47.07;98042.38;5018375;28;20037;-84
2022/03/10 08:58:34;;;;;;;15.60;8.75;;;;;;;4.77;49.52;98037.69;5026318;28;20029;-84
2022/03/10 09:01:00;;;;;;;20.60;9.30;;;;;;;4.28;51.08;98040.06;5023767;28;20379;-83
2022/03/10 09:03:26;;;;;;;12.32;7.30;;;;;;;3.76;51.22;98033.59;5007371;28;20124;-84
2022/03/10 09:05:52;;;;;;;11.95;7.18;;;;;;;3.90;51.21;98045.59;5019640;28;20037;-83
2022/03/10 09:08:20;;;;;;;19.08;9.13;;;;;;;3.73;52.34;98059.28;5046852;28;20040;-84
2022/03/10 09:10:46;;;;;;;19.75;9.55;;;;;;;3.55;54.81;98059.75;5014256;28;20570;-83
2022/03/10 09:13:12;;;;;;;75.68;26.35;;;;;;;3.58;55.67;98084.34;4998195;28;20090;-84
2022/03/10 09:15:37;;;;;;;18.17;9.48;;;;;;;3.60;53.23;98048.16;5023582;28;20497;-82
2022/03/10 09:18:03;;;;;;;24.83;12.90;;;;;;;3.74;51.77;98055.72;5025783;28;20037;-83
2022/03/10 09:20:30;;;;;;;38.92;21.52;;;;;;;3.41;52.67;98062.78;5016307;28;20063;-84
2022/03/10 09:22:55;;;;;;;11.32;7.32;;;;;;;3.61;53.03;98060.47;5004650;28;20405;-83
2022/03/10 09:25:21;;;;;;;11.30;6.45;;;;;;;3.75;51.92;98060.97;5033679;28;20033;-84
2022/03/10 09:27:48;;;;;;;12.73;6.78;;;;;;;3.73;50.10;98040.75;5012605;28;20506;-84
2022/03/10 09:30:14;;;;;;;14.23;8.20;;;;;;;3.85;50.75;98053.66;5029576;28;20036;-84
2022/03/10 09:32:43;;;;;;;12.13;7.20;;;;;;;3.92;51.24;98043.78;5004043;28;20021;-83
2022/03/10 09:35:12;;;;;;;12.40;6.40;;;;;;;3.47;52.80;98057.34;5028289;28;20037;-83
2022/03/10 09:37:38;;;;;;;11.20;6.43;;;;;;;3.18;53.76;98065.09;5023872;28;20034;-83
2022/03/10 09:40:04;;;;;;;12.25;6.70;;;;;;;3.50;53.96;98053.72;5015531;28;20026;-83
2022/03/10 09:42:31;;;;;;;10.07;5.60;;;;;;;3.67;53.61;98070.03;5023271;28;20516;-84
2022/03/10 09:44:58;;;;;;;15.73;6.10;;;;;;;3.38;53.83;98070.78;5015099;28;20079;-84
2022/03/10 09:47:24;;;;;;;9.32;5.78;;;;;;;3.70;54.77;98076.09;5003433;28;20013;-83
2022/03/10 09:49:51;;;;;;;14.88;9.30;;;;;;;3.64;52.34;98063.03;5015086;28;20402;-83
2022/03/10 09:52:18;;;;;;;15.63;9.10;;;;;;;3.96;53.15;98046.31;5002803;28;20491;-83
2022/03/10 09:54:43;;;;;;;10.85;7.10;;;;;;;4.17;51.19;98043.06;5023144;28;20140;-83
2022/03/10 09:57:09;;;;;;;10.75;6.35;;;;;;;3.85;52.08;98053.66;5002971;28;20052;-84
2022/03/10 09:59:47;;;;;;;12.25;5.85;;;;;;;3.80;51.39;98045.84;5007636;28;20049;-82
2022/03/10 10:02:13;;;;;;;12.38;6.13;;;;;;;3.39;53.62;98056.63;5015566;28;20563;-85
2022/03/10 10:04:41;;;;;;;10.75;5.57;;;;;;;3.06;54.36;98065.41;5024002;28;20021;-84
2022/03/10 10:07:07;;;;;;;9.48;5.90;;;;;;;3.07;55.04;98089.16;5008987;28;20042;-84
2022/03/10 10:09:46;;;;;;;12.50;7.03;;;;;;;3.46;55.53;98095.25;5012065;28;20044;-84
2022/03/10 10:12:14;;;;;;;13.60;8.40;;;;;;;5.62;49.23;98071.16;5019883;28;20477;-84
2022/03/10 10:14:47;;;;;;;7.45;4.55;;;;;;;8.01;41.79;98012.09;5007554;28;20041;-85
2022/03/10 10:17:13;;;;;;;5.22;3.75;;;;;;;9.33;38.55;98011.19;5023574;28;20037;-84
2022/03/10 10:19:40;;;;;;;8.45;4.90;;;;;;;8.65;39.28;98011.84;5023575;28;20022;-85
2022/03/10 10:22:14;;;;;;;7.32;4.93;;;;;;;7.20;41.91;98020.94;5006123;28;20037;-84
2022/03/10 10:24:51;;;;;;;7.25;5.05;;;;;;;6.24;43.64;98023.84;5026388;28;20120;-85
2022/03/10 10:27:18;;;;;;;16.23;7.25;;;;;;;5.22;45.94;98039.81;5009997;28;20036;-84
2022/03/10 10:29:48;;;;;;;8.95;5.35;;;;;;;4.38;48.26;98052.16;5022665;28;20041;-85
2022/03/10 10:32:47;;;;;;;10.48;6.78;;;;;;;3.47;47.84;98044.13;5006474;28;20519;-84
2022/03/10 10:35:20;;;;;;;13.63;7.70;;;;;;;3.49;51.33;98065.22;5029265;28;20033;-84
2022/03/10 10:37:50;;;;;;;11.27;5.28;;;;;;;3.59;50.71;98046.44;5025873;28;20067;-83
2022/03/10 10:40:31;;;;;;;15.98;6.40;;;;;;;3.67;50.01;98068.25;5003474;28;20119;-85
2022/03/10 10:42:57;;;;;;;8.73;5.45;;;;;;;3.50;50.77;98070.47;5020953;28;20022;-83
2022/03/10 10:45:29;;;;;;;8.70;5.50;;;;;;;3.16;53.10;98077.50;5004053;28;20089;-85
2022/03/10 10:48:11;;;;;;;5.70;3.63;;;;;;;3.27;52.30;98075.44;5031858;28;20033;-85
2022/03/10 10:50:39;;;;;;;9.02;4.72;;;;;;;3.01;51.72;98068.19;5025708;28;20456;-85
2022/03/10 10:53:06;;;;;;;8.80;4.78;;;;;;;2.86;52.50;98073.78;5005958;28;20033;-84
2022/03/10 10:55:36;;;;;;;8.52;5.15;;;;;;;2.64;50.10;98067.28;5030954;28;20076;-84
2022/03/10 10:58:10;;;;;;;10.40;4.80;;;;;;;2.63;51.47;98066.41;5019755;28;20124;-83
2022/03/10 11:00:47;;;;;;;11.05;4.82;;;;;;;3.00;53.08;98081.41;5004751;28;20379;-84
2022/03/10 11:03:22;;;;;;;10.57;6.90;;;;;;;3.56;49.88;98049.16;5028896;28;20029;-83
2022/03/10 11:05:49;;;;;;;7.85;5.20;;;;;;;3.81;50.90;98073.19;5020124;28;20032;-83
2022/03/10 11:08:20;;;;;;;11.50;5.28;;;;;;;3.29;50.83;98056.00;5000907;28;20466;-83
2022/03/10 11:10:46;;;;;;;9.75;5.45;;;;;;;3.60;49.38;98058.72;5019660;28;20091;-84
2022/03/10 11:13:12;;;;;;;10.43;5.55;;;;;;;3.36;49.98;98063.78;5036371;28;20025;-84
2022/03/10 11:15:38;;;;;;;8.88;5.20;;;;;;;3.47;50.68;98057.34;4997833;28;20097;-83
2022/03/10 11:18:04;;;;;;;10.15;6.10;;;;;;;3.55;52.15;98065.91;5029468;28;20033;-83
2022/03/10 11:20:31;;;;;;;18.98;11.65;;;;;;;3.99;53.51;98070.03;5004524;28;20132;-84
2022/03/10 11:23:03;;;;;;;48.40;20.35;;;;;;;4.19;52.22;98070.34;4997091;28;20465;-84